Time;durP1;ratioP1;P1;durP2;ratioP2;P2;SDS_P1;SDS_P2;PMS_P1;PMS_P2;Temp;Humidity;BMP_temperature;BMP_pressure;BME280_temperature;BME280_humidity;BME280_pressure;Samples;Min_cycle;Max_cycle;Signal;HPM_P1;HPM_P2
2021/07/29 00:01:19;;;;;;;11.55;4.40;;;20.10;99.90;;;;;;3570739;40;20037;-65
2021/07/29 00:03:45;;;;;;;6.35;4.28;;;20.10;99.90;;;;;;3570919;40;20772;-65
2021/07/29 00:06:11;;;;;;;6.72;3.72;;;20.10;99.90;;;;;;3570089;40;20025;-65
2021/07/29 00:08:36;;;;;;;5.68;3.97;;;20.20;99.90;;;;;;3571220;40;20107;-66
2021/07/29 00:11:02;;;;;;;12.70;6.30;;;20.30;99.90;;;;;;3570621;40;20421;-59
2021/07/29 00:13:27;;;;;;;6.25;4.25;;;19.90;99.90;;;;;;3571055;40;20119;-58
2021/07/29 00:15:53;;;;;;;6.45;4.60;;;20.30;99.90;;;;;;3560093;40;20041;-58
2021/07/29 00:21:03;;;;;;;6.72;4.00;;;20.20;99.90;;;;;;3571199;40;20037;-59
2021/07/29 00:23:29;;;;;;;5.60;4.15;;;20.20;99.90;;;;;;3572357;40;20205;-59
2021/07/29 00:25:55;;;;;;;5.70;4.28;;;20.30;99.90;;;;;;3572293;40;20047;-58
2021/07/29 00:28:20;;;;;;;6.10;4.05;;;20.60;99.90;;;;;;3572071;40;20625;-58
2021/07/29 00:30:46;;;;;;;8.25;3.85;;;20.30;99.90;;;;;;3572074;40;20055;-58
2021/07/29 00:33:12;;;;;;;7.82;4.20;;;;;;;;;;3572228;40;20056;-59
2021/07/29 00:35:38;;;;;;;7.50;4.30;;;20.20;99.90;;;;;;3570781;40;20101;-58
2021/07/29 00:38:04;;;;;;;8.55;3.95;;;;;;;;;;3571666;40;20036;-58
2021/07/29 00:40:30;;;;;;;7.13;4.20;;;;;;;;;;3572093;40;20033;-58
2021/07/29 00:42:56;;;;;;;7.40;4.38;;;19.70;99.90;;;;;;3569318;40;20042;-58
2021/07/29 00:45:22;;;;;;;7.32;4.05;;;;;;;;;;3571864;40;20055;-62
2021/07/29 00:47:48;;;;;;;7.05;4.07;;;19.70;99.90;;;;;;3572076;40;20142;-59
2021/07/29 00:50:14;;;;;;;5.53;3.75;;;19.70;99.90;;;;;;3571417;40;20661;-58
2021/07/29 00:52:39;;;;;;;9.18;4.30;;;20.20;99.90;;;;;;3572141;40;20028;-58
2021/07/29 00:55:05;;;;;;;6.88;3.70;;;19.70;99.90;;;;;;3571965;40;20044;-59
2021/07/29 00:57:30;;;;;;;6.30;3.97;;;20.00;99.90;;;;;;3571626;40;20037;-59
2021/07/29 00:59:55;;;;;;;5.32;3.72;;;20.30;99.90;;;;;;3579069;40;20037;-59
2021/07/29 01:02:21;;;;;;;6.00;4.32;;;19.50;99.90;;;;;;3570340;40;20516;-59
2021/07/29 01:04:46;;;;;;;7.05;4.55;;;19.70;99.90;;;;;;3571509;40;20037;-58
2021/07/29 01:07:12;;;;;;;5.22;3.70;;;;;;;;;;3570914;40;20796;-58
2021/07/29 01:09:38;;;;;;;6.18;3.70;;;19.10;99.90;;;;;;3578790;40;20036;-58
2021/07/29 01:12:04;;;;;;;5.35;4.10;;;;;;;;;;3571617;40;20146;-59
2021/07/29 01:14:29;;;;;;;6.47;4.13;;;19.00;99.90;;;;;;3570603;40;20040;-59
2021/07/29 01:16:55;;;;;;;6.95;4.40;;;18.50;99.90;;;;;;3570436;40;20501;-59
2021/07/29 01:19:20;;;;;;;7.97;4.22;;;18.40;99.90;;;;;;3570853;40;20102;-58
2021/07/29 01:21:46;;;;;;;5.30;3.90;;;;;;;;;;3570375;40;20029;-59
2021/07/29 01:24:12;;;;;;;7.80;4.43;;;18.80;99.90;;;;;;3577183;40;20507;-58
2021/07/29 01:26:38;;;;;;;9.25;4.22;;;;;;;;;;3570299;40;20025;-59
2021/07/29 01:29:03;;;;;;;6.22;3.90;;;18.20;99.90;;;;;;3569807;40;20029;-59
2021/07/29 01:31:29;;;;;;;5.30;3.75;;;18.60;99.90;;;;;;3568401;40;20025;-58
2021/07/29 01:33:54;;;;;;;5.78;4.30;;;18.40;99.90;;;;;;3570146;40;20403;-58
2021/07/29 01:36:20;;;;;;;7.70;4.38;;;18.80;99.90;;;;;;3569998;40;20037;-58
2021/07/29 01:38:45;;;;;;;5.72;4.13;;;;;;;;;;3570252;40;20039;-59
2021/07/29 01:41:11;;;;;;;8.00;4.32;;;18.50;99.90;;;;;;3569663;40;20025;-59
2021/07/29 01:43:36;;;;;;;6.07;4.22;;;18.20;99.90;;;;;;3570103;40;20053;-59
2021/07/29 01:46:02;;;;;;;10.25;4.38;;;18.20;99.90;;;;;;3571825;40;20055;-66
2021/07/29 01:48:27;;;;;;;8.93;4.30;;;18.10;99.90;;;;;;3572818;40;20625;-66
2021/07/29 01:50:53;;;;;;;8.23;4.22;;;18.00;99.90;;;;;;3572785;40;20033;-66
2021/07/29 01:53:18;;;;;;;7.10;4.57;;;18.20;99.90;;;;;;3572771;40;20045;-66
2021/07/29 01:55:44;;;;;;;5.13;4.25;;;18.00;99.90;;;;;;3579538;40;20079;-66
2021/07/29 01:58:09;;;;;;;5.72;4.00;;;17.90;99.90;;;;;;3572092;40;20357;-66
2021/07/29 02:00:35;;;;;;;6.13;4.45;;;;;;;;;;3572083;40;20689;-66
2021/07/29 02:03:04;;;;;;;5.72;4.10;;;17.80;99.90;;;;;;3571755;40;20110;-67
2021/07/29 02:05:30;;;;;;;9.18;4.50;;;;;;;;;;3571876;40;20025;-67
2021/07/29 02:07:55;;;;;;;5.90;4.28;;;18.50;99.90;;;;;;3571760;40;20032;-66
2021/07/29 02:10:21;;;;;;;5.80;4.10;;;18.10;99.90;;;;;;3571906;40;20045;-67
2021/07/29 02:12:47;;;;;;;8.23;4.20;;;;;;;;;;3572472;40;20025;-67
2021/07/29 02:15:13;;;;;;;6.07;4.13;;;;;;;;;;3571819;40;20037;-67
2021/07/29 02:17:38;;;;;;;6.47;4.53;;;18.20;99.90;;;;;;3572553;40;20042;-66
2021/07/29 02:20:04;;;;;;;5.07;3.90;;;;;;;;;;3572050;40;20036;-66
2021/07/29 02:22:29;;;;;;;8.55;4.50;;;18.10;99.90;;;;;;3570525;40;20025;-66
2021/07/29 02:24:56;;;;;;;5.43;3.97;;;;;;;;;;3570996;40;20080;-67
2021/07/29 02:27:23;;;;;;;5.35;3.88;;;17.50;99.90;;;;;;3572142;40;20044;-66
2021/07/29 02:29:49;;;;;;;8.93;4.00;;;17.90;99.90;;;;;;3570798;40;20014;-67
2021/07/29 02:32:14;;;;;;;9.75;4.32;;;17.90;99.90;;;;;;3572379;40;20039;-66
2021/07/29 02:34:40;;;;;;;5.82;4.15;;;17.90;99.90;;;;;;3572149;40;20039;-66
2021/07/29 02:37:05;;;;;;;6.85;4.75;;;18.30;99.90;;;;;;3572092;40;20053;-67
2021/07/29 02:39:31;;;;;;;9.10;4.57;;;17.90;99.90;;;;;;3572525;40;20354;-67
2021/07/29 02:41:56;;;;;;;7.38;4.10;;;17.80;99.90;;;;;;3572192;40;20048;-67
2021/07/29 02:44:22;;;;;;;5.28;3.90;;;17.80;99.90;;;;;;3571706;40;20410;-67
2021/07/29 02:46:47;;;;;;;6.43;3.85;;;17.70;99.90;;;;;;3570561;40;20104;-67
2021/07/29 02:49:13;;;;;;;6.07;4.57;;;17.70;99.90;;;;;;3570119;40;20047;-67
2021/07/29 02:51:38;;;;;;;5.03;3.88;;;18.10;99.90;;;;;;3569355;40;20660;-66
2021/07/29 02:54:04;;;;;;;7.65;4.30;;;17.50;99.90;;;;;;3571430;40;20073;-66
2021/07/29 02:56:29;;;;;;;6.00;3.85;;;17.70;99.90;;;;;;3571403;40;20036;-66
2021/07/29 02:58:55;;;;;;;6.72;3.80;;;;;;;;;;3567658;40;20069;-67
2021/07/29 03:01:21;;;;;;;12.52;3.95;;;17.90;99.90;;;;;;3571048;40;20800;-67
2021/07/29 03:03:46;;;;;;;6.22;3.90;;;17.70;99.90;;;;;;3569071;40;20028;-67
2021/07/29 03:06:12;;;;;;;9.45;3.85;;;17.90;99.90;;;;;;3570018;40;20056;-66
2021/07/29 03:08:37;;;;;;;7.53;4.13;;;17.70;99.90;;;;;;3569759;40;20427;-67
2021/07/29 03:11:03;;;;;;;6.35;3.78;;;17.80;99.90;;;;;;3571385;40;20123;-66
2021/07/29 03:13:29;;;;;;;5.13;3.58;;;;;;;;;;3570629;40;20029;-66
2021/07/29 03:15:54;;;;;;;9.50;4.35;;;17.70;99.90;;;;;;3570242;40;20053;-66
2021/07/29 03:18:20;;;;;;;7.65;4.00;;;;;;;;;;3572314;40;20036;-66
2021/07/29 03:20:46;;;;;;;7.32;3.90;;;17.60;99.90;;;;;;3570682;40;20158;-66
2021/07/29 03:23:11;;;;;;;4.63;3.45;;;17.90;99.90;;;;;;3571870;40;20630;-67
2021/07/29 03:25:37;;;;;;;8.80;3.83;;;17.00;99.90;;;;;;3571372;40;20049;-66
2021/07/29 03:28:02;;;;;;;7.32;4.30;;;17.50;99.90;;;;;;3568341;40;20057;-66
2021/07/29 03:30:28;;;;;;;5.40;4.10;;;;;;;;;;3572007;40;20037;-66
2021/07/29 03:32:54;;;;;;;6.05;4.28;;;;;;;;;;3579057;40;20396;-66
2021/07/29 03:35:20;;;;;;;6.00;3.70;;;17.60;99.90;;;;;;3578866;40;20420;-66
2021/07/29 03:37:46;;;;;;;4.88;4.07;;;;;;;;;;3570074;40;20040;-66
2021/07/29 03:40:11;;;;;;;9.85;4.38;;;17.70;99.90;;;;;;3571189;40;20060;-66
2021/07/29 03:42:37;;;;;;;9.77;4.50;;;17.40;99.90;;;;;;3572186;40;20052;-66
2021/07/29 03:45:02;;;;;;;7.47;4.10;;;17.40;99.90;;;;;;3572216;40;20037;-66
2021/07/29 03:47:28;;;;;;;7.32;4.00;;;;;;;;;;3571635;40;20523;-66
2021/07/29 03:49:54;;;;;;;7.10;3.50;;;17.60;99.90;;;;;;3572347;40;20025;-66
2021/07/29 03:52:19;;;;;;;10.13;3.97;;;17.40;99.90;;;;;;3570983;40;20031;-66
2021/07/29 03:54:45;;;;;;;6.72;3.90;;;;;;;;;;3577644;40;20074;-67
2021/07/29 03:57:11;;;;;;;6.88;4.18;;;17.70;99.90;;;;;;3576377;40;20295;-66
2021/07/29 03:59:36;;;;;;;10.90;4.05;;;17.50;99.90;;;;;;3572104;40;20036;-65
2021/07/29 04:02:08;;;;;;;9.70;4.35;;;17.60;99.90;;;;;;3580464;40;20021;-67
2021/07/29 04:04:33;;;;;;;5.30;3.92;;;17.40;99.90;;;;;;3571790;40;20036;-67
2021/07/29 04:06:59;;;;;;;6.28;3.85;;;17.40;99.90;;;;;;3572406;40;20393;-67
2021/07/29 04:09:24;;;;;;;6.60;4.28;;;17.50;99.90;;;;;;3570699;40;20047;-65
2021/07/29 04:11:49;;;;;;;5.82;4.18;;;18.00;99.90;;;;;;3570455;40;20818;-66
2021/07/29 04:14:15;;;;;;;7.60;3.65;;;17.50;99.90;;;;;;3570665;40;20033;-66
2021/07/29 04:16:40;;;;;;;6.15;4.07;;;17.40;99.90;;;;;;3569340;40;20084;-66
2021/07/29 04:19:06;;;;;;;5.72;4.00;;;17.40;99.90;;;;;;3569606;40;20361;-66
2021/07/29 04:21:31;;;;;;;10.68;4.57;;;17.60;99.90;;;;;;3569006;40;20417;-65
2021/07/29 04:23:57;;;;;;;5.80;4.20;;;17.40;99.90;;;;;;3570734;40;20048;-66
2021/07/29 04:26:22;;;;;;;7.93;4.45;;;17.40;99.90;;;;;;3570307;40;20103;-65
2021/07/29 04:28:48;;;;;;;6.80;4.00;;;17.40;99.90;;;;;;3570721;40;20592;-66
2021/07/29 04:31:13;;;;;;;8.52;4.28;;;17.40;99.90;;;;;;3567123;40;20032;-66
2021/07/29 04:33:39;;;;;;;13.45;4.25;;;17.30;99.90;;;;;;3570651;40;20410;-66
2021/07/29 04:36:04;;;;;;;10.13;4.25;;;17.30;99.90;;;;;;3570999;40;20021;-66
2021/07/29 04:38:30;;;;;;;11.40;4.55;;;17.40;99.90;;;;;;3569909;40;20045;-66
2021/07/29 04:40:55;;;;;;;6.80;4.13;;;17.40;99.90;;;;;;3570088;40;20757;-66
2021/07/29 04:43:21;;;;;;;7.03;3.58;;;17.50;99.90;;;;;;3570526;40;20049;-66
2021/07/29 04:45:46;;;;;;;13.27;4.65;;;17.40;99.90;;;;;;3569617;40;20130;-66
2021/07/29 04:48:12;;;;;;;6.07;3.70;;;17.40;99.90;;;;;;3578154;40;20040;-66
2021/07/29 04:50:37;;;;;;;13.40;4.22;;;17.50;99.90;;;;;;3570893;40;20134;-66
2021/07/29 04:53:03;;;;;;;11.65;4.32;;;17.50;99.90;;;;;;3570038;40;20040;-66
2021/07/29 04:55:28;;;;;;;12.00;4.15;;;17.50;99.90;;;;;;3578416;40;20429;-66
2021/07/29 04:57:54;;;;;;;6.85;4.00;;;17.90;99.90;;;;;;3571257;40;20040;-66
2021/07/29 05:00:19;;;;;;;6.85;3.75;;;17.60;99.90;;;;;;3570029;40;20763;-66
2021/07/29 05:02:45;;;;;;;7.25;3.83;;;17.90;99.90;;;;;;3571087;40;20611;-66
2021/07/29 05:05:11;;;;;;;4.90;3.95;;;;;;;;;;3571074;40;20307;-66
2021/07/29 05:07:36;;;;;;;6.28;4.20;;;18.70;99.90;;;;;;3571221;40;20117;-66
2021/07/29 05:10:02;;;;;;;8.10;3.28;;;17.90;99.90;;;;;;3578351;40;20056;-66
2021/07/29 05:12:28;;;;;;;4.63;3.55;;;;;;;;;;3575907;40;20021;-65
2021/07/29 05:14:56;;;;;;;10.50;4.13;;;18.00;99.90;;;;;;3574752;40;20032;-68
2021/07/29 05:17:22;;;;;;;7.57;3.90;;;;;;;;;;3570029;40;20065;-68
2021/07/29 05:19:48;;;;;;;7.63;4.00;;;;;;;;;;3569930;40;20034;-67
2021/07/29 05:22:15;;;;;;;8.68;5.28;;;18.00;99.90;;;;;;3571256;40;20022;-67
2021/07/29 05:24:40;;;;;;;5.07;3.67;;;18.10;99.90;;;;;;3570587;40;20053;-67
2021/07/29 05:27:06;;;;;;;7.93;3.67;;;18.40;99.90;;;;;;3571275;40;20319;-67
2021/07/29 05:29:32;;;;;;;6.00;3.22;;;18.60;99.90;;;;;;3570548;40;20035;-68
2021/07/29 05:31:57;;;;;;;5.90;3.28;;;18.40;99.90;;;;;;3571049;40;20028;-67
2021/07/29 05:34:24;;;;;;;8.68;3.60;;;18.00;99.90;;;;;;3570390;40;20057;-68
2021/07/29 05:36:50;;;;;;;5.63;3.33;;;;;;;;;;3571288;40;20039;-67
2021/07/29 05:39:15;;;;;;;4.90;3.38;;;18.50;99.90;;;;;;3579729;40;20057;-69
2021/07/29 05:41:41;;;;;;;4.07;3.10;;;;;;;;;;3573129;40;20029;-68
2021/07/29 05:44:07;;;;;;;7.13;3.47;;;18.70;99.90;;;;;;3568113;40;20037;-67
2021/07/29 05:46:33;;;;;;;9.57;5.22;;;18.60;99.90;;;;;;3575424;40;20033;-67
2021/07/29 05:48:58;;;;;;;10.43;4.93;;;18.60;99.90;;;;;;3571776;40;20751;-67
2021/07/29 05:51:24;;;;;;;13.40;4.30;;;18.70;99.90;;;;;;3569609;40;20326;-67
2021/07/29 05:53:50;;;;;;;9.88;4.13;;;;;;;;;;3572729;40;20041;-67
2021/07/29 05:56:15;;;;;;;5.55;3.30;;;18.90;99.90;;;;;;3569055;40;20084;-67
2021/07/29 05:58:41;;;;;;;6.28;3.08;;;18.90;99.90;;;;;;3570866;40;20642;-68
2021/07/29 06:01:07;;;;;;;6.63;2.97;;;18.90;99.90;;;;;;3570146;40;20029;-68
2021/07/29 06:03:34;;;;;;;8.05;3.20;;;18.90;99.90;;;;;;3571304;40;20618;-67
2021/07/29 06:06:00;;;;;;;6.22;3.30;;;18.90;99.90;;;;;;3571281;40;20168;-68
2021/07/29 06:08:25;;;;;;;8.15;3.40;;;19.20;99.90;;;;;;3570904;40;20444;-69
2021/07/29 06:10:51;;;;;;;8.05;3.45;;;19.40;99.90;;;;;;3569669;40;20741;-68
2021/07/29 06:13:17;;;;;;;8.13;3.17;;;;;;;;;;3569529;40;20041;-68
2021/07/29 06:15:42;;;;;;;7.13;2.85;;;19.80;99.90;;;;;;3570317;40;20040;-69
2021/07/29 06:18:11;;;;;;;7.28;2.75;;;18.90;99.90;;;;;;3578583;40;20025;-68
2021/07/29 06:20:36;;;;;;;6.10;3.03;;;18.90;99.90;;;;;;3569064;40;20036;-68
2021/07/29 06:23:02;;;;;;;14.40;3.30;;;;;;;;;;3567364;40;20029;-68
2021/07/29 06:25:28;;;;;;;7.00;3.08;;;;;;;;;;3578653;40;20021;-69
2021/07/29 06:27:54;;;;;;;6.35;3.03;;;;;;;;;;3570386;40;20021;-68
2021/07/29 06:30:20;;;;;;;12.45;6.72;;;19.80;99.90;;;;;;3578588;40;20044;-68
2021/07/29 06:32:46;;;;;;;4.82;3.22;;;;;;;;;;3570265;40;20033;-68
2021/07/29 06:35:12;;;;;;;15.15;7.70;;;;;;;;;;3570986;40;20573;-68
2021/07/29 06:37:38;;;;;;;7.90;4.53;;;;;;;;;;3577678;40;20056;-67
2021/07/29 06:40:04;;;;;;;5.25;2.85;;;;;;;;;;3576749;40;20131;-68
2021/07/29 06:42:30;;;;;;;8.52;2.80;;;20.10;99.90;;;;;;3570579;40;20093;-67
2021/07/29 06:44:56;;;;;;;4.40;2.72;;;20.50;99.90;;;;;;3577783;40;20711;-67
2021/07/29 06:47:21;;;;;;;4.40;2.85;;;21.00;99.90;;;;;;3570619;40;20048;-68
2021/07/29 06:49:47;;;;;;;4.60;3.10;;;20.70;99.90;;;;;;3570280;40;20032;-68
2021/07/29 06:52:12;;;;;;;4.68;2.83;;;21.00;99.90;;;;;;3571463;40;20062;-68
2021/07/29 06:54:38;;;;;;;3.35;2.58;;;20.70;99.90;;;;;;3570940;40;20044;-69
2021/07/29 06:57:04;;;;;;;7.65;2.60;;;20.90;99.90;;;;;;3571645;40;20026;-68
2021/07/29 06:59:29;;;;;;;6.30;2.70;;;20.70;99.90;;;;;;3571649;40;20044;-66
2021/07/29 07:01:55;;;;;;;4.85;2.50;;;20.80;99.90;;;;;;3570286;40;20033;-66
2021/07/29 07:04:20;;;;;;;4.50;2.20;;;20.90;99.90;;;;;;3569542;40;20056;-66
2021/07/29 07:06:46;;;;;;;7.07;2.55;;;20.90;99.90;;;;;;3570091;40;20025;-66
2021/07/29 07:09:11;;;;;;;7.72;2.53;;;20.40;99.90;;;;;;3570911;40;20048;-66
2021/07/29 07:11:37;;;;;;;4.18;2.35;;;21.20;99.90;;;;;;3570394;40;20314;-66
2021/07/29 07:14:05;;;;;;;4.63;2.30;;;20.60;99.90;;;;;;3570962;40;20122;-66
2021/07/29 07:16:31;;;;;;;6.68;2.45;;;;;;;;;;3570034;40;20587;-66
2021/07/29 07:18:57;;;;;;;3.80;2.20;;;22.00;99.90;;;;;;3567187;40;20358;-66
2021/07/29 07:21:24;;;;;;;3.85;2.50;;;;;;;;;;3569540;40;20381;-67
2021/07/29 07:23:49;;;;;;;4.35;2.25;;;22.30;99.30;;;;;;3569783;40;20044;-66
2021/07/29 07:26:15;;;;;;;3.67;2.10;;;21.90;99.40;;;;;;3571196;40;20049;-66
2021/07/29 07:28:41;;;;;;;4.95;2.25;;;;;;;;;;3571108;40;20040;-65
2021/07/29 07:31:06;;;;;;;7.00;2.13;;;22.10;99.20;;;;;;3568510;40;20036;-66
2021/07/29 07:33:32;;;;;;;3.10;2.20;;;22.10;99.90;;;;;;3569866;40;20025;-66
2021/07/29 07:35:57;;;;;;;13.13;2.42;;;22.20;98.40;;;;;;3570044;40;20088;-59
2021/07/29 07:38:23;;;;;;;4.53;2.47;;;22.20;98.10;;;;;;3569054;40;20075;-59
2021/07/29 07:40:49;;;;;;;5.80;2.13;;;22.10;97.70;;;;;;3569110;40;20037;-59
2021/07/29 07:43:15;;;;;;;4.25;2.13;;;23.10;98.00;;;;;;3567652;40;20144;-60
2021/07/29 07:45:41;;;;;;;6.60;2.75;;;23.10;98.20;;;;;;3577178;40;20041;-59
2021/07/29 07:48:09;;;;;;;6.95;2.60;;;23.00;98.00;;;;;;3568429;40;20542;-60
2021/07/29 07:50:34;;;;;;;6.72;2.50;;;22.30;96.60;;;;;;3569922;40;20022;-60
2021/07/29 07:53:00;;;;;;;5.78;2.08;;;23.50;97.30;;;;;;3568733;40;20514;-59
2021/07/29 07:55:25;;;;;;;5.25;2.63;;;23.10;95.70;;;;;;3569357;40;20413;-59
2021/07/29 07:57:51;;;;;;;9.15;2.30;;;22.60;96.60;;;;;;3569509;40;20044;-59
2021/07/29 08:00:16;;;;;;;5.93;2.38;;;23.20;96.70;;;;;;3568356;40;20461;-59
2021/07/29 08:02:42;;;;;;;5.93;2.53;;;23.20;96.30;;;;;;3567171;40;20025;-59
2021/07/29 08:05:07;;;;;;;7.28;2.70;;;23.20;97.40;;;;;;3569287;40;20040;-60
2021/07/29 08:07:33;;;;;;;9.57;2.50;;;23.40;96.20;;;;;;3569387;40;20704;-60
2021/07/29 08:09:58;;;;;;;5.63;2.65;;;23.20;94.90;;;;;;3568433;40;20033;-59
2021/07/29 08:12:24;;;;;;;6.47;2.45;;;23.00;96.00;;;;;;3570231;40;20025;-59
2021/07/29 08:14:50;;;;;;;4.28;2.88;;;23.10;94.70;;;;;;3570669;40;20177;-60
2021/07/29 08:17:15;;;;;;;7.57;2.95;;;22.50;96.80;;;;;;3561128;40;20035;-59
2021/07/29 08:19:41;;;;;;;5.75;3.22;;;21.90;97.10;;;;;;3577147;40;20051;-59
2021/07/29 08:22:06;;;;;;;7.22;2.88;;;22.60;97.20;;;;;;3570379;40;20029;-60
2021/07/29 08:24:32;;;;;;;4.20;2.28;;;22.60;96.90;;;;;;3570183;40;20044;-59
2021/07/29 08:26:57;;;;;;;6.88;2.38;;;22.60;95.40;;;;;;3569157;40;20106;-59
2021/07/29 08:29:23;;;;;;;5.00;2.40;;;23.30;96.20;;;;;;3569147;40;20337;-59
2021/07/29 08:31:48;;;;;;;11.50;5.13;;;23.40;96.10;;;;;;3570791;40;20037;-59
2021/07/29 08:34:14;;;;;;;8.02;3.00;;;24.20;95.80;;;;;;3570959;40;20021;-59
2021/07/29 08:36:39;;;;;;;11.68;2.90;;;24.20;94.80;;;;;;3567976;40;20033;-59
2021/07/29 08:39:05;;;;;;;13.30;2.63;;;;;;;;;;3575663;40;20411;-60
2021/07/29 08:41:31;;;;;;;6.28;2.70;;;24.40;94.80;;;;;;3567938;40;20077;-59
2021/07/29 08:43:56;;;;;;;5.38;2.40;;;23.80;94.90;;;;;;3569053;40;20052;-59
2021/07/29 08:46:21;;;;;;;6.47;2.72;;;23.20;95.90;;;;;;3569823;40;20115;-60
2021/07/29 08:48:47;;;;;;;6.45;2.60;;;22.90;95.30;;;;;;3569752;40;20037;-59
2021/07/29 08:51:12;;;;;;;6.15;2.70;;;22.90;95.40;;;;;;3570898;40;20346;-59
2021/07/29 08:53:38;;;;;;;6.40;2.65;;;23.10;94.70;;;;;;3569844;40;20037;-59
2021/07/29 08:56:04;;;;;;;7.75;2.58;;;23.60;94.60;;;;;;3571729;40;20499;-59
2021/07/29 08:58:29;;;;;;;6.63;2.30;;;23.50;93.40;;;;;;3570550;40;20429;-60
2021/07/29 09:00:54;;;;;;;3.45;2.17;;;24.40;93.70;;;;;;3570333;40;20029;-60
2021/07/29 09:03:21;;;;;;;5.47;2.08;;;24.90;92.80;;;;;;3572177;40;20787;-67
2021/07/29 09:05:46;;;;;;;15.50;2.83;;;24.90;92.00;;;;;;3570886;40;20045;-67
2021/07/29 09:08:12;;;;;;;8.77;2.50;;;25.00;91.40;;;;;;3571719;40;20315;-67
2021/07/29 09:10:38;;;;;;;8.48;2.58;;;25.30;90.60;;;;;;3579073;40;20126;-67
2021/07/29 09:13:03;;;;;;;8.93;3.30;;;25.70;91.30;;;;;;3572472;40;20402;-67
2021/07/29 09:15:29;;;;;;;8.55;2.53;;;25.70;89.60;;;;;;3572214;40;20037;-67
2021/07/29 09:17:54;;;;;;;9.30;2.83;;;26.00;87.60;;;;;;3570604;40;20044;-67
2021/07/29 09:20:20;;;;;;;5.72;2.97;;;26.00;88.50;;;;;;3570263;40;20674;-67
2021/07/29 09:22:49;;;;;;;7.45;2.92;;;26.20;88.80;;;;;;3571032;40;20418;-67
2021/07/29 09:25:16;;;;;;;9.63;2.50;;;26.10;85.70;;;;;;3568474;40;20053;-67
2021/07/29 09:27:42;;;;;;;3.20;2.20;;;25.50;90.30;;;;;;3569933;40;20103;-67
2021/07/29 09:30:07;;;;;;;7.55;2.50;;;25.60;90.50;;;;;;3570500;40;20033;-67
2021/07/29 09:32:33;;;;;;;7.57;2.83;;;25.60;90.00;;;;;;3570049;40;20053;-67
2021/07/29 09:34:58;;;;;;;8.70;2.60;;;25.50;90.30;;;;;;3570306;40;20288;-67
2021/07/29 09:37:24;;;;;;;6.72;2.38;;;25.20;89.70;;;;;;3568963;40;20052;-66
2021/07/29 09:39:49;;;;;;;5.43;2.53;;;24.80;90.40;;;;;;3567978;40;20114;-66
2021/07/29 09:42:15;;;;;;;9.35;2.65;;;24.70;91.00;;;;;;3569678;40;20061;-66
2021/07/29 09:44:40;;;;;;;7.82;2.67;;;24.50;91.70;;;;;;3570764;40;20471;-66
2021/07/29 09:47:06;;;;;;;5.13;2.38;;;24.40;92.10;;;;;;3578158;40;20033;-66
2021/07/29 09:49:31;;;;;;;4.60;2.67;;;24.10;92.00;;;;;;3571639;40;20536;-66
2021/07/29 09:51:57;;;;;;;5.10;2.33;;;24.10;91.70;;;;;;3571800;40;20045;-66
2021/07/29 09:54:22;;;;;;;5.22;2.35;;;23.90;92.30;;;;;;3570341;40;20029;-66
2021/07/29 09:56:48;;;;;;;6.57;2.85;;;23.60;93.30;;;;;;3569389;40;20721;-66
2021/07/29 09:59:13;;;;;;;6.50;2.60;;;23.50;92.80;;;;;;3569516;40;20040;-66
2021/07/29 10:01:38;;;;;;;6.90;2.33;;;23.40;92.30;;;;;;3570421;40;20505;-66
2021/07/29 10:04:04;;;;;;;5.40;2.30;;;23.50;92.20;;;;;;3571777;40;20037;-67
2021/07/29 10:06:30;;;;;;;5.70;2.33;;;23.90;92.80;;;;;;3570089;40;20125;-67
2021/07/29 10:08:55;;;;;;;6.70;3.30;;;24.60;90.20;;;;;;3569822;40;20134;-67
2021/07/29 10:11:21;;;;;;;3.40;1.98;;;25.50;89.50;;;;;;3570745;40;20084;-67
2021/07/29 10:13:46;;;;;;;6.07;2.60;;;24.90;88.00;;;;;;3571217;40;20099;-67
2021/07/29 10:16:13;;;;;;;7.07;2.05;;;24.70;87.80;;;;;;3569529;40;20415;-67
2021/07/29 10:18:38;;;;;;;5.22;2.70;;;24.50;88.30;;;;;;3569700;40;20049;-68
2021/07/29 10:21:04;;;;;;;12.73;3.08;;;24.90;89.30;;;;;;3569662;40;20037;-67
2021/07/29 10:23:29;;;;;;;6.40;2.70;;;25.50;90.00;;;;;;3577206;40;20043;-68
2021/07/29 10:25:55;;;;;;;5.40;2.55;;;26.20;88.30;;;;;;3570412;40;20403;-67
2021/07/29 10:28:21;;;;;;;7.53;2.40;;;26.40;87.20;;;;;;3571084;40;20029;-68
2021/07/29 10:30:47;;;;;;;3.78;1.95;;;25.40;84.70;;;;;;3569306;40;20032;-67
2021/07/29 10:33:12;;;;;;;5.40;2.55;;;26.30;85.70;;;;;;3570702;40;20045;-67
2021/07/29 10:35:40;;;;;;;11.98;3.15;;;26.10;86.10;;;;;;3571172;40;20052;-60
2021/07/29 10:38:05;;;;;;;5.43;2.47;;;25.80;85.90;;;;;;3571500;40;20029;-69
2021/07/29 10:40:31;;;;;;;4.38;2.20;;;25.70;85.00;;;;;;3569278;40;20120;-67
2021/07/29 10:42:56;;;;;;;5.10;2.10;;;25.40;81.50;;;;;;3570159;40;20672;-67
2021/07/29 10:45:22;;;;;;;7.95;2.05;;;25.20;80.70;;;;;;3570100;40;20074;-66
2021/07/29 10:47:47;;;;;;;9.55;2.10;;;24.80;80.30;;;;;;3567543;40;20408;-68
2021/07/29 10:50:13;;;;;;;8.07;1.73;;;24.60;80.70;;;;;;3570371;40;20029;-67
2021/07/29 10:52:38;;;;;;;12.40;1.88;;;24.60;80.30;;;;;;3570968;40;20070;-70
2021/07/29 10:55:04;;;;;;;6.45;1.95;;;24.70;79.40;;;;;;3570785;40;20029;-67
2021/07/29 10:57:30;;;;;;;3.42;2.00;;;24.80;78.90;;;;;;3571582;40;20032;-68
2021/07/29 10:59:55;;;;;;;3.22;1.67;;;24.40;78.80;;;;;;3570266;40;20041;-67
2021/07/29 11:02:23;;;;;;;4.65;1.80;;;24.30;78.50;;;;;;3569251;40;20061;-67
2021/07/29 11:04:49;;;;;;;4.80;2.00;;;24.40;77.70;;;;;;3569841;40;20055;-67
2021/07/29 11:07:14;;;;;;;7.80;2.55;;;24.40;79.00;;;;;;3569983;40;20623;-67
2021/07/29 11:09:40;;;;;;;6.20;2.63;;;24.40;78.70;;;;;;3569238;40;20092;-68
2021/07/29 11:12:05;;;;;;;6.78;1.77;;;24.30;78.10;;;;;;3568936;40;20036;-67
2021/07/29 11:14:31;;;;;;;5.68;1.67;;;23.50;78.00;;;;;;3569633;40;20029;-67
2021/07/29 11:16:56;;;;;;;3.35;1.80;;;24.70;78.30;;;;;;3576041;40;20033;-67
2021/07/29 11:19:22;;;;;;;10.05;2.17;;;25.10;78.40;;;;;;3569460;40;20410;-67
2021/07/29 11:21:47;;;;;;;6.97;2.05;;;25.50;75.70;;;;;;3570542;40;20029;-67
2021/07/29 11:24:13;;;;;;;5.82;1.88;;;25.70;75.30;;;;;;3570303;40;20040;-60
2021/07/29 11:26:38;;;;;;;8.75;1.80;;;25.60;75.60;;;;;;3567341;40;20483;-60
2021/07/29 11:29:04;;;;;;;5.45;2.42;;;25.30;75.80;;;;;;3571275;40;20036;-60
2021/07/29 11:31:29;;;;;;;5.45;2.03;;;25.20;76.20;;;;;;3569421;40;20123;-60
2021/07/29 11:33:55;;;;;;;3.97;2.10;;;24.70;76.80;;;;;;3570762;40;20611;-60
2021/07/29 11:36:20;;;;;;;9.65;2.00;;;24.50;77.10;;;;;;3570941;40;20065;-59
2021/07/29 11:38:46;;;;;;;6.93;2.22;;;24.40;79.40;;;;;;3571413;40;20488;-60
2021/07/29 11:41:11;;;;;;;5.25;1.67;;;24.30;78.10;;;;;;3569250;40;20088;-61
2021/07/29 11:43:37;;;;;;;5.88;2.17;;;24.50;80.00;;;;;;3572021;40;20129;-59
2021/07/29 11:46:02;;;;;;;6.40;1.77;;;24.60;77.70;;;;;;3570965;40;20080;-60
2021/07/29 11:48:28;;;;;;;7.63;1.40;;;24.70;79.00;;;;;;3569677;40;20032;-60
2021/07/29 11:50:53;;;;;;;2.58;1.42;;;24.60;76.90;;;;;;3569764;40;20804;-60
2021/07/29 11:53:19;;;;;;;15.40;2.00;;;24.30;79.30;;;;;;3570199;40;20422;-60
2021/07/29 11:55:44;;;;;;;5.93;1.60;;;24.20;76.80;;;;;;3577291;40;20033;-60
2021/07/29 11:58:11;;;;;;;3.22;1.58;;;24.10;77.50;;;;;;3570052;40;20104;-59
2021/07/29 12:00:37;;;;;;;4.68;1.50;;;24.30;77.60;;;;;;3575120;40;20041;-60
2021/07/29 12:03:02;;;;;;;4.65;1.88;;;24.40;76.80;;;;;;3569969;40;20048;-61
2021/07/29 12:05:28;;;;;;;6.95;1.77;;;24.40;78.00;;;;;;3569592;40;20029;-60
2021/07/29 12:07:53;;;;;;;13.73;5.93;;;24.50;77.70;;;;;;3569582;40;20032;-60
2021/07/29 12:10:19;;;;;;;14.43;3.25;;;24.70;79.00;;;;;;3569069;40;20028;-60
2021/07/29 12:12:44;;;;;;;6.43;1.55;;;25.20;80.10;;;;;;3570059;40;20032;-60
2021/07/29 12:15:10;;;;;;;5.80;1.58;;;25.60;76.70;;;;;;3576007;40;20127;-61
2021/07/29 12:17:35;;;;;;;3.80;1.85;;;25.80;78.30;;;;;;3577261;40;20665;-60
2021/07/29 12:20:03;;;;;;;4.18;2.15;;;25.10;76.90;;;;;;3568949;40;20045;-60
2021/07/29 12:22:28;;;;;;;4.63;1.80;;;25.40;76.30;;;;;;3567839;40;20084;-60
2021/07/29 12:24:56;;;;;;;3.13;1.70;;;25.10;76.00;;;;;;3570272;40;20088;-60
2021/07/29 12:27:21;;;;;;;3.00;1.85;;;25.20;78.90;;;;;;3569430;40;20871;-61
2021/07/29 12:29:47;;;;;;;8.13;1.88;;;25.80;76.20;;;;;;3569697;40;20053;-60
2021/07/29 12:32:12;;;;;;;4.03;1.65;;;26.20;75.60;;;;;;3567655;40;20041;-61
2021/07/29 12:34:38;;;;;;;3.88;1.42;;;26.60;74.20;;;;;;3570880;40;20520;-63
2021/07/29 12:37:03;;;;;;;6.80;2.00;;;26.30;74.10;;;;;;3570131;40;20401;-63
2021/07/29 12:39:30;;;;;;;2.65;1.60;;;26.20;72.90;;;;;;3570686;40;20064;-63
2021/07/29 12:41:55;;;;;;;3.65;1.60;;;25.90;70.60;;;;;;3565864;40;20165;-63
2021/07/29 12:44:21;;;;;;;9.85;1.83;;;25.70;71.80;;;;;;3569631;40;20029;-64
2021/07/29 12:46:46;;;;;;;2.80;1.48;;;25.80;72.50;;;;;;3569148;40;20053;-62
2021/07/29 12:49:12;;;;;;;8.27;1.73;;;26.00;69.60;;;;;;3568775;40;20044;-62
2021/07/29 12:51:37;;;;;;;3.42;1.70;;;26.10;70.40;;;;;;3568453;40;20017;-62
2021/07/29 12:54:03;;;;;;;3.88;1.77;;;26.50;70.40;;;;;;3570163;40;20079;-69